Overview Statistics Trail Chart Weather Telemetry Raw packets
 

This is the latest recevied weather packets stored in our database for station/object KI4NG. If no packets are shown the sender has not sent any weather packets the latest 10 day(s).

<< 38 39 40 41 42 43 44 >>
Time Temp. Humidity Pressure Rain* Wind** Luminosity Snow
1788361067 30° C 70% 1023.3 hPa 0 mm - 609 W/m² -
1788360763 30° C 70% 1023.3 hPa 0 mm - 614 W/m² -
1788360458 30.56° C 72% 1023.2 hPa 0 mm - 598 W/m² -
1788360154 30° C 72% 1023.1 hPa 0 mm - 588 W/m² -
1788359849 30° C 74% 1023.1 hPa 0 mm - 570 W/m² -
1788359544 30° C 74% 1023 hPa 0 mm - 549 W/m² -
1788359240 30° C 73% 1023.2 hPa 0 mm - 537 W/m² -
1788358936 28.89° C 75% 1023.1 hPa 0 mm - 116 W/m² -
1788358635 28.89° C 77% 1022.9 hPa 0 mm - 114 W/m² -
1788358331 28.89° C 76% 1023 hPa 0 mm - 410 W/m² -
1788358026 28.33° C 78% 1022.9 hPa 0 mm - 393 W/m² -
1788357721 28.33° C 78% 1022.9 hPa 0 mm - 384 W/m² -
1788357420 27.78° C 81% 1022.7 hPa 0 mm - 98 W/m² -
1788357115 27.78° C 80% 1022.8 hPa 0 mm - 88 W/m² -
1788356811 27.22° C 85% 1022.7 hPa 0 mm - 78 W/m² -
1788356510 26.67° C 85% 1022.8 hPa 0 mm - 83 W/m² -
1788356206 26.11° C 86% 1023 hPa 0 mm - 74 W/m² -
1788355905 26.11° C 86% 1023 hPa 0 mm - 93 W/m² -
1788355601 25.56° C 89% 1022.9 hPa 0 mm - 70 W/m² -
1788355296 25° C 91% 1022.8 hPa 0 mm - 68 W/m² -
1788354992 25° C 91% 1022.7 hPa 0 mm - 67 W/m² -
1788354687 24.44° C 93% 1022.8 hPa 0 mm - 206 W/m² -
1788354383 23.89° C 93% 1023 hPa 0 mm - 81 W/m² -
1788354078 23.33° C 96% 1022.9 hPa 0 mm - 75 W/m² -
1788353774 23.33° C 96% 1022.8 hPa 0 mm - 76 W/m² -

* Rain latest hour (hover to see other rain measurements)
** Current wind speed in m/s (hover to see current wind gust speed)